Time;durP1;ratioP1;P1;durP2;ratioP2;P2;SDS_P1;SDS_P2;PMS_P1;PMS_P2;Temp;Humidity;BMP_temperature;BMP_pressure;BME280_temperature;BME280_humidity;BME280_pressure;Samples;Min_cycle;Max_cycle;Signal;HPM_P1;HPM_P2
2022/11/24 00:02:25;;;;;;;20.37;11.87;;;;;;;8.47;91.00;93823.63;5093605;28;20465;-76
2022/11/24 00:04:52;;;;;;;16.30;10.10;;;;;;;8.04;91.49;93835.41;5093336;28;21050;-76
2022/11/24 00:07:19;;;;;;;11.17;8.03;;;;;;;8.05;91.02;93839.66;5057507;28;20459;-75
2022/11/24 00:09:46;;;;;;;14.93;8.23;;;;;;;8.03;91.19;93836.38;5093188;28;20444;-75
2022/11/24 00:12:13;;;;;;;11.60;8.23;;;;;;;8.05;91.47;93837.88;5093079;28;20965;-77
2022/11/24 00:14:40;;;;;;;11.07;7.93;;;;;;;8.10;91.60;93839.25;5093365;28;20482;-76
2022/11/24 00:17:06;;;;;;;17.40;10.67;;;;;;;8.14;91.11;93843.25;5093313;28;20451;-76
2022/11/24 00:19:34;;;;;;;11.43;9.40;;;;;;;8.16;91.25;93843.91;5093685;28;20832;-76
2022/11/24 00:22:01;;;;;;;9.30;7.90;;;;;;;8.19;91.22;93844.44;5093480;28;20443;-76
2022/11/24 00:24:28;;;;;;;10.63;7.80;;;;;;;8.23;90.97;93839.75;5092844;28;20484;-76
2022/11/24 00:26:55;;;;;;;21.13;8.10;;;;;;;8.25;91.00;93848.28;5093442;28;20505;-76
2022/11/24 00:29:22;;;;;;;13.30;8.13;;;;;;;8.28;91.61;93855.84;5093257;28;20498;-75
2022/11/24 00:31:49;;;;;;;23.03;7.93;;;;;;;8.25;92.10;93863.97;5093053;28;20464;-77
2022/11/24 00:34:15;;;;;;;12.20;8.70;;;;;;;8.21;92.65;93860.00;5093089;28;20455;-77
2022/11/24 00:36:44;;;;;;;13.33;8.30;;;;;;;8.25;92.72;93851.72;5093413;28;20451;-76
2022/11/24 00:39:13;;;;;;;14.13;6.90;;;;;;;8.30;92.70;93846.06;5093380;28;20441;-76
2022/11/24 00:41:40;;;;;;;8.77;6.93;;;;;;;8.34;92.73;93847.44;5093216;28;20949;-76
2022/11/24 00:44:07;;;;;;;9.77;8.10;;;;;;;8.37;92.67;93852.41;5093073;28;20484;-76
2022/11/24 00:46:34;;;;;;;13.30;7.97;;;;;;;8.38;92.76;93860.13;5093010;28;20440;-77
2022/11/24 00:49:01;;;;;;;13.27;8.00;;;;;;;8.39;92.70;93866.19;5092931;28;20452;-76
2022/11/24 00:51:29;;;;;;;14.93;7.60;;;;;;;8.34;93.17;93852.69;5093188;28;20706;-77
2022/11/24 00:53:57;;;;;;;9.83;7.07;;;;;;;8.37;93.50;93858.44;5093177;28;20440;-76
2022/11/24 00:56:24;;;;;;;9.00;6.50;;;;;;;8.41;93.27;93866.84;5092560;28;20440;-76
2022/11/24 00:58:51;;;;;;;9.83;6.93;;;;;;;8.39;93.25;93860.94;5092993;28;20447;-76
2022/11/24 01:01:20;;;;;;;7.73;5.60;;;;;;;8.41;92.91;93860.81;5092375;28;20472;-76
2022/11/24 01:03:47;;;;;;;6.83;6.00;;;;;;;8.41;93.41;93866.84;5092606;28;20440;-77
2022/11/24 01:06:16;;;;;;;10.03;6.20;;;;;;;8.44;93.50;93860.50;5092386;28;20552;-76
2022/11/24 01:08:44;;;;;;;9.27;6.13;;;;;;;8.47;92.50;93857.63;5092711;28;20455;-75
2022/11/24 01:11:14;;;;;;;9.70;6.27;;;;;;;8.50;92.63;93860.75;5092561;28;20444;-75
2022/11/24 01:13:44;;;;;;;7.83;6.27;;;;;;;8.55;92.43;93871.63;5092245;28;20943;-76
2022/11/24 01:16:16;;;;;;;8.40;5.90;;;;;;;8.56;91.67;93868.03;5092394;28;20458;-76
2022/11/24 01:18:43;;;;;;;8.20;5.40;;;;;;;8.46;91.74;93856.78;5092321;28;20451;-77
2022/11/24 01:21:10;;;;;;;7.73;5.70;;;;;;;8.45;92.01;93859.56;5091920;28;20448;-76
2022/11/24 01:23:37;;;;;;;6.10;5.50;;;;;;;8.46;92.21;93855.97;5092507;28;20483;-75
2022/11/24 01:26:05;;;;;;;7.70;5.23;;;;;;;8.45;91.91;93855.16;5092224;28;20480;-76
2022/11/24 01:28:34;;;;;;;10.27;5.60;;;;;;;8.46;92.07;93856.78;5092037;28;20526;-76
2022/11/24 01:31:02;;;;;;;4.50;4.10;;;;;;;8.43;91.78;93857.06;5092272;28;20444;-76
2022/11/24 01:33:29;;;;;;;11.97;4.80;;;;;;;8.38;92.25;93852.28;5092136;28;20435;-76
2022/11/24 01:35:57;;;;;;;5.43;4.93;;;;;;;8.30;92.29;93843.44;5091254;28;20930;-76
2022/11/24 01:38:24;;;;;;;8.80;6.10;;;;;;;8.28;92.90;93843.59;5092793;28;20444;-76
2022/11/24 01:40:59;;;;;;;5.53;4.97;;;;;;;8.31;92.51;93842.47;5073354;28;20793;-76
2022/11/24 01:43:26;;;;;;;5.53;4.70;;;;;;;8.37;92.17;93847.16;5091999;28;20454;-76
2022/11/24 01:45:55;;;;;;;5.13;4.63;;;;;;;8.35;92.26;93849.94;5092674;28;20480;-77
2022/11/24 01:48:25;;;;;;;6.60;5.80;;;;;;;8.30;92.29;93856.53;5091856;28;20489;-76
2022/11/24 01:51:00;;;;;;;6.60;4.40;;;;;;;8.21;92.65;93852.97;5092039;28;20445;-75
2022/11/24 01:53:27;;;;;;;6.03;5.03;;;;;;;8.20;92.99;93858.34;5091680;28;20451;-75
2022/11/24 01:55:54;;;;;;;10.00;5.03;;;;;;;8.21;92.62;93865.22;5092279;28;20786;-76
2022/11/24 01:58:26;;;;;;;7.60;4.80;;;;;;;8.19;92.98;93860.13;5091802;28;20513;-76
2022/11/24 02:00:55;;;;;;;6.00;5.40;;;;;;;8.17;92.78;93867.28;5091847;28;20471;-76
2022/11/24 02:03:28;;;;;;;4.70;4.30;;;;;;;8.17;93.09;93867.28;5091651;28;20443;-76
2022/11/24 02:05:59;;;;;;;10.17;5.23;;;;;;;8.16;93.25;93864.81;5091709;28;20484;-76
2022/11/24 02:08:35;;;;;;;8.23;4.50;;;;;;;8.14;93.55;93857.13;5072719;28;20858;-76
2022/11/24 02:11:04;;;;;;;6.93;5.03;;;;;;;8.18;93.29;93860.28;5091723;28;20439;-74
2022/11/24 02:13:33;;;;;;;5.33;4.80;;;;;;;8.22;93.26;93856.41;5091935;28;20436;-76
2022/11/24 02:16:03;;;;;;;6.77;5.13;;;;;;;8.22;92.91;93859.03;5091972;28;20956;-76
2022/11/24 02:18:29;;;;;;;7.70;4.70;;;;;;;8.20;93.05;93856.56;5091970;28;20501;-76
2022/11/24 02:20:56;;;;;;;7.47;5.53;;;;;;;8.13;92.99;93850.25;5091884;28;20535;-75
2022/11/24 02:23:27;;;;;;;5.80;4.27;;;;;;;8.21;93.32;93862.59;5091522;28;20930;-77
2022/11/24 02:26:04;;;;;;;9.70;5.13;;;;;;;8.29;92.66;93875.78;5091513;28;20483;-75
2022/11/24 02:28:33;;;;;;;5.20;4.70;;;;;;;8.31;92.88;93874.66;5091831;28;20858;-76
2022/11/24 02:31:00;;;;;;;4.80;4.10;;;;;;;8.32;92.20;93870.25;5091535;28;20926;-76
2022/11/24 02:33:28;;;;;;;5.93;5.07;;;;;;;8.29;92.56;93870.56;5091562;28;20942;-75
2022/11/24 02:35:54;;;;;;;5.23;4.40;;;;;;;8.21;92.99;93863.44;5091675;28;20455;-76
2022/11/24 02:38:30;;;;;;;10.10;4.70;;;;;;;8.28;92.61;93874.13;5091852;28;20440;-76
2022/11/24 02:40:59;;;;;;;5.13;4.47;;;;;;;8.31;92.86;93871.22;5091666;28;20447;-76
2022/11/24 02:43:29;;;;;;;4.43;3.90;;;;;;;8.29;92.94;93873.16;5091678;28;20451;-75
2022/11/24 02:45:58;;;;;;;5.23;4.73;;;;;;;8.32;93.04;93865.03;5091354;28;20865;-76
2022/11/24 02:48:24;;;;;;;5.13;4.40;;;;;;;8.36;92.68;93866.44;5094272;28;20443;-77
2022/11/24 02:50:51;;;;;;;8.73;5.30;;;;;;;8.41;92.47;93885.16;5094851;28;20952;-76
2022/11/24 02:53:18;;;;;;;5.77;4.07;;;;;;;8.46;92.07;93874.25;5095177;28;20489;-76
2022/11/24 02:55:45;;;;;;;4.27;3.87;;;;;;;8.48;92.42;93869.72;5095174;28;20801;-75
2022/11/24 02:58:13;;;;;;;5.93;4.93;;;;;;;8.47;91.75;93868.06;5095015;28;20449;-76
2022/11/24 03:00:40;;;;;;;4.13;3.83;;;;;;;8.45;92.04;93870.81;5094470;28;20531;-76
2022/11/24 03:03:08;;;;;;;5.43;4.60;;;;;;;8.41;91.70;93864.25;5095051;28;20444;-76
2022/11/24 03:05:35;;;;;;;5.77;4.10;;;;;;;8.29;92.54;93865.31;5094638;28;21055;-76
2022/11/24 03:08:02;;;;;;;4.10;3.80;;;;;;;8.32;92.41;93854.59;5094835;28;20446;-76
2022/11/24 03:10:29;;;;;;;4.83;4.27;;;;;;;8.46;91.79;93872.47;5094772;28;20444;-76
2022/11/24 03:12:55;;;;;;;4.93;3.80;;;;;;;8.50;91.94;93875.63;5094709;28;20448;-77
2022/11/24 03:15:23;;;;;;;5.10;4.03;;;;;;;8.45;91.52;93872.63;5094617;28;20451;-76
2022/11/24 03:17:50;;;;;;;5.83;4.63;;;;;;;8.49;91.33;93879.22;5094411;28;20538;-76
2022/11/24 03:20:18;;;;;;;5.73;4.83;;;;;;;8.58;90.85;93884.41;5094743;28;20444;-77
2022/11/24 03:22:45;;;;;;;6.03;5.20;;;;;;;8.61;90.68;93881.50;5075342;28;20840;-76
2022/11/24 03:25:11;;;;;;;5.10;4.37;;;;;;;8.48;91.53;93878.38;5094347;28;20475;-77
2022/11/24 03:27:38;;;;;;;5.37;4.50;;;;;;;8.28;91.70;93889.81;5094654;28;20458;-76
2022/11/24 03:30:06;;;;;;;4.87;4.23;;;;;;;8.44;91.76;93894.50;5094212;28;20453;-76
2022/11/24 03:32:33;;;;;;;5.53;3.63;;;;;;;8.37;92.07;93894.22;5058726;28;20479;-76
2022/11/24 03:35:00;;;;;;;5.70;4.40;;;;;;;8.31;92.22;93882.50;5094125;28;20863;-76
2022/11/24 03:37:28;;;;;;;6.80;4.17;;;;;;;8.43;92.10;93893.69;5094418;28;20428;-76
2022/11/24 03:39:55;;;;;;;4.83;4.40;;;;;;;8.52;92.14;93898.03;5075031;28;20431;-76
2022/11/24 03:42:21;;;;;;;5.57;3.80;;;;;;;8.59;91.99;93909.56;5094273;28;20987;-76
2022/11/24 03:44:48;;;;;;;6.50;4.07;;;;;;;8.64;91.11;93901.28;5093910;28;20984;-76
2022/11/24 03:47:15;;;;;;;5.80;4.60;;;;;;;8.69;91.73;93906.94;5094205;28;20497;-76
2022/11/24 03:49:42;;;;;;;6.10;4.03;;;;;;;8.72;91.65;93908.44;5093844;28;20451;-77
2022/11/24 03:52:09;;;;;;;5.07;4.10;;;;;;;8.78;91.11;93913.94;5093905;28;20444;-75
2022/11/24 03:54:41;;;;;;;5.10;4.47;;;;;;;8.80;91.32;93912.00;5093847;28;20436;-75
2022/11/24 03:57:07;;;;;;;7.00;4.67;;;;;;;8.83;91.29;93916.09;5093798;28;20451;-77
2022/11/24 03:59:34;;;;;;;6.53;5.07;;;;;;;8.85;90.64;93928.06;5092748;28;20445;-76
2022/11/24 04:02:01;;;;;;;10.20;4.77;;;;;;;8.69;90.72;93935.72;5093536;28;20986;-76
2022/11/24 04:04:28;;;;;;;8.33;6.43;;;;;;;8.50;92.52;93936.59;5093377;28;20866;-77
2022/11/24 04:06:54;;;;;;;9.43;8.53;;;;;;;8.26;93.53;93929.16;5093473;28;20496;-77
2022/11/24 04:09:21;;;;;;;8.17;7.30;;;;;;;8.44;93.57;93934.53;5093861;28;20447;-76
2022/11/24 04:14:34;;;;;;;17.33;9.80;;;;;;;8.57;93.49;93932.44;5093564;28;20432;-75
2022/11/24 04:17:01;;;;;;;16.57;10.03;;;;;;;8.37;93.69;93929.03;5093636;28;20443;-75
2022/11/24 04:19:27;;;;;;;14.60;10.47;;;;;;;8.37;93.72;93925.59;5093309;28;20965;-76
2022/11/24 04:21:54;;;;;;;13.03;9.20;;;;;;;8.40;94.56;93930.56;5093288;28;20844;-76
2022/11/24 04:24:21;;;;;;;13.50;9.23;;;;;;;8.36;94.69;93944.84;5057591;28;20871;-81
2022/11/24 04:26:48;;;;;;;12.37;9.50;;;;;;;8.44;94.48;93947.59;5093367;28;21105;-75
2022/11/24 04:29:16;;;;;;;19.73;9.40;;;;;;;8.49;94.48;93955.84;5090767;28;20505;-75
2022/11/24 04:31:42;;;;;;;17.00;9.70;;;;;;;8.52;94.54;93958.19;5094173;28;20448;-76
2022/11/24 04:34:11;;;;;;;33.33;22.30;;;;;;;8.56;94.15;93958.72;5094661;28;20455;-75
2022/11/24 04:36:39;;;;;;;39.60;21.83;;;;;;;8.55;94.44;93957.06;5094355;28;20981;-76
2022/11/24 04:39:06;;;;;;;15.53;9.70;;;;;;;8.56;93.47;93956.09;5094072;28;20530;-75
2022/11/24 04:41:33;;;;;;;9.40;5.83;;;;;;;8.55;93.28;93959.69;5094346;28;20443;-76
2022/11/24 04:44:00;;;;;;;5.47;4.43;;;;;;;8.53;92.80;93959.00;5094102;28;20980;-75
2022/11/24 04:46:28;;;;;;;4.60;4.17;;;;;;;8.51;92.92;93964.38;5094445;28;21026;-76
2022/11/24 04:48:55;;;;;;;3.93;3.50;;;;;;;8.49;92.56;93961.06;5093993;28;20437;-75
2022/11/24 04:51:21;;;;;;;6.50;3.90;;;;;;;8.43;92.43;93964.25;5093679;28;20505;-75
2022/11/24 04:53:49;;;;;;;5.17;4.33;;;;;;;8.45;92.29;93967.56;5092612;28;20446;-75
2022/11/24 04:56:18;;;;;;;5.40;4.50;;;;;;;8.44;92.18;93971.13;5092327;28;20919;-75
2022/11/24 04:58:47;;;;;;;8.57;4.57;;;;;;;8.48;92.14;93974.28;5093309;28;20451;-75
2022/11/24 05:01:14;;;;;;;6.30;4.17;;;;;;;8.47;91.79;93978.69;5093617;28;20472;-75
2022/11/24 05:03:42;;;;;;;7.93;4.97;;;;;;;8.46;92.10;93971.81;5093326;28;20858;-75
2022/11/24 05:06:09;;;;;;;6.77;5.10;;;;;;;8.41;91.92;93968.81;5093114;28;20476;-75
2022/11/24 05:08:36;;;;;;;6.10;3.70;;;;;;;8.42;91.99;93980.91;5093623;28;20926;-76
2022/11/24 05:11:04;;;;;;;6.13;4.00;;;;;;;8.37;92.35;93983.91;5092911;28;21058;-75
2022/11/24 05:13:31;;;;;;;5.97;5.47;;;;;;;8.34;92.42;93978.16;5093670;28;20444;-76
2022/11/24 05:15:59;;;;;;;4.87;4.50;;;;;;;8.32;91.96;93980.88;5093984;28;20798;-75
2022/11/24 05:18:25;;;;;;;5.73;4.33;;;;;;;8.37;92.12;93983.09;5092883;28;20448;-75
2022/11/24 05:20:54;;;;;;;6.40;4.10;;;;;;;8.43;92.33;93986.97;5093992;28;20831;-76
2022/11/24 05:23:22;;;;;;;10.37;5.27;;;;;;;8.44;91.84;93999.06;5093502;28;20444;-75
2022/11/24 05:25:49;;;;;;;8.40;4.50;;;;;;;8.47;91.82;93996.16;5093126;28;20530;-76
2022/11/24 05:28:17;;;;;;;8.70;3.43;;;;;;;8.48;91.80;93992.59;5092320;28;20448;-76
2022/11/24 05:30:44;;;;;;;6.77;4.13;;;;;;;8.49;91.32;93983.78;5092196;28;20439;-76
2022/11/24 05:33:14;;;;;;;4.90;4.40;;;;;;;8.43;91.02;93974.72;5091863;28;20444;-75
2022/11/24 05:35:41;;;;;;;5.30;3.70;;;;;;;8.53;91.74;93998.22;5092707;28;20467;-75
2022/11/24 05:38:09;;;;;;;9.10;3.87;;;;;;;8.53;92.06;93988.59;5092951;28;20452;-77
2022/11/24 05:40:36;;;;;;;6.87;3.80;;;;;;;8.56;91.88;94008.41;5093150;28;20427;-75
2022/11/24 05:43:03;;;;;;;7.60;4.30;;;;;;;8.59;91.96;94002.88;5057839;28;20501;-76
2022/11/24 05:45:30;;;;;;;4.30;3.30;;;;;;;8.58;91.89;94002.06;5093410;28;20444;-77
2022/11/24 05:48:04;;;;;;;7.10;4.00;;;;;;;8.50;90.94;94003.72;5092254;28;20460;-75
2022/11/24 05:50:31;;;;;;;4.40;3.10;;;;;;;8.48;91.29;94005.66;5092267;28;20487;-76
2022/11/24 05:53:02;;;;;;;7.67;3.67;;;;;;;8.53;92.70;94004.28;5072825;28;20439;-76
2022/11/24 05:55:31;;;;;;;4.90;4.30;;;;;;;8.61;92.69;94001.78;5092235;28;20473;-75
2022/11/24 05:57:59;;;;;;;6.23;5.30;;;;;;;8.62;91.46;93998.19;5092801;28;20440;-75
2022/11/24 06:00:26;;;;;;;9.33;4.37;;;;;;;8.62;90.56;94000.00;5092775;28;20534;-76
2022/11/24 06:02:53;;;;;;;5.93;4.60;;;;;;;8.59;90.46;93997.66;5092899;28;20444;-75
2022/11/24 06:05:20;;;;;;;4.17;3.77;;;;;;;8.60;89.82;94000.13;5093037;28;20497;-76
2022/11/24 06:07:46;;;;;;;5.00;4.50;;;;;;;8.60;90.20;94015.81;5102972;28;20470;-76
2022/11/24 06:10:13;;;;;;;9.27;5.60;;;;;;;8.63;91.21;94018.16;5112192;28;20439;-75
2022/11/24 06:12:42;;;;;;;7.30;5.93;;;;;;;8.64;91.92;94022.41;5099240;28;20438;-74
2022/11/24 06:15:10;;;;;;;7.33;6.30;;;;;;;8.64;91.43;94011.97;5113384;28;20789;-76
2022/11/24 06:17:38;;;;;;;8.70;5.73;;;;;;;8.64;91.35;94019.81;5107645;28;20868;-76
2022/11/24 06:20:06;;;;;;;10.03;4.60;;;;;;;8.63;91.35;94015.53;5093914;28;20781;-76
2022/11/24 06:22:33;;;;;;;5.73;3.90;;;;;;;8.59;91.35;94021.19;5093994;28;20436;-76
2022/11/24 06:25:00;;;;;;;5.10;3.90;;;;;;;8.54;91.79;94019.00;5077391;28;20459;-76
2022/11/24 06:27:27;;;;;;;9.27;4.13;;;;;;;8.52;91.87;94025.34;5116495;28;20494;-78
2022/11/24 06:29:55;;;;;;;6.50;4.03;;;;;;;8.50;92.27;94035.94;5133416;28;20431;-78
2022/11/24 06:32:23;;;;;;;28.20;10.47;;;;;;;8.14;94.99;94036.59;5126629;28;20448;-76
2022/11/24 06:34:49;;;;;;;19.30;10.80;;;;;;;7.86;98.05;94033.81;5105315;28;20447;-75
2022/11/24 06:37:16;;;;;;;20.87;12.80;;;;;;;7.87;98.23;94043.28;5110263;28;20454;-75
2022/11/24 06:39:43;;;;;;;18.17;11.70;;;;;;;7.90;98.82;94044.81;5114819;27;20446;-75
2022/11/24 06:42:10;;;;;;;16.17;11.70;;;;;;;7.80;100.00;94057.00;5114430;28;20510;-76
2022/11/24 06:44:36;;;;;;;22.53;12.37;;;;;;;8.26;100.00;94048.56;5100538;28;20434;-76
2022/11/24 06:47:05;;;;;;;16.27;12.33;;;;;;;8.31;100.00;94057.63;5103147;28;20487;-77
2022/11/24 06:49:31;;;;;;;18.43;12.73;;;;;;;8.45;100.00;94069.50;5113533;28;20439;-77
2022/11/24 06:51:58;;;;;;;30.53;13.23;;;;;;;8.32;99.15;94074.97;5068717;28;20480;-77
2022/11/24 06:54:25;;;;;;;18.70;13.57;;;;;;;8.49;98.39;94081.34;5109022;28;20443;-77
2022/11/24 06:56:56;;;;;;;21.23;14.20;;;;;;;8.55;97.39;94085.19;5102934;28;20442;-76
2022/11/24 06:59:23;;;;;;;20.53;15.20;;;;;;;8.59;97.83;94082.16;5100893;28;20876;-77
2022/11/24 07:01:50;;;;;;;14.40;11.43;;;;;;;8.71;97.54;94087.25;5107028;27;20479;-77
2022/11/24 07:04:18;;;;;;;20.67;13.70;;;;;;;8.67;96.79;94084.94;5104988;28;20463;-79
2022/11/24 07:06:45;;;;;;;17.73;12.10;;;;;;;8.69;96.79;94090.84;5112970;28;20482;-76
2022/11/24 07:09:13;;;;;;;26.13;14.30;;;;;;;8.77;97.22;94094.56;5115834;27;20454;-76
2022/11/24 07:11:41;;;;;;;19.37;13.03;;;;;;;8.89;96.66;94107.34;5095998;28;20509;-77
2022/11/24 07:14:08;;;;;;;20.73;12.47;;;;;;;8.74;96.49;94100.88;5107369;28;20918;-76
2022/11/24 07:16:35;;;;;;;17.70;13.03;;;;;;;8.76;96.74;94109.41;5115948;28;20447;-78
2022/11/24 07:19:01;;;;;;;22.13;17.27;;;;;;;8.77;96.83;94116.31;5065869;28;20436;-78
2022/11/24 07:21:30;;;;;;;39.08;23.02;;;;;;;8.81;97.25;94103.78;5103304;28;20436;-76
2022/11/24 07:23:58;;;;;;;37.40;22.70;;;;;;;8.83;97.13;94123.59;5103979;28;20263;-76
2022/11/24 07:26:25;;;;;;;40.30;20.67;;;;;;;8.69;97.32;94122.22;5112720;28;20481;-77
2022/11/24 07:28:52;;;;;;;27.50;15.60;;;;;;;8.58;97.79;94100.59;5115615;28;20447;-78
2022/11/24 07:31:23;;;;;;;32.00;16.80;;;;;;;8.69;98.47;94119.63;5079604;28;20442;-78
2022/11/24 07:33:51;;;;;;;36.83;18.60;;;;;;;8.79;99.04;94113.53;5114608;27;20505;-78
2022/11/24 07:36:18;;;;;;;31.03;16.97;;;;;;;8.93;98.07;94126.19;5115699;27;20455;-83
2022/11/24 07:38:47;;;;;;;27.30;15.43;;;;;;;9.03;97.78;94137.50;5080279;28;20451;-80
2022/11/24 07:41:15;;;;;;;23.00;14.73;;;;;;;9.18;99.24;94135.25;5115910;28;20444;-78
2022/11/24 07:43:42;;;;;;;27.53;17.30;;;;;;;9.37;99.29;94139.66;5116007;28;20839;-78
2022/11/24 07:46:11;;;;;;;23.27;14.63;;;;;;;9.44;98.31;94138.09;5115746;28;20493;-78
2022/11/24 07:48:40;;;;;;;23.50;13.93;;;;;;;9.40;97.54;94141.97;5079957;28;20641;-77
2022/11/24 07:51:07;;;;;;;32.30;16.53;;;;;;;9.44;96.32;94138.94;5115275;28;20439;-77
2022/11/24 07:53:35;;;;;;;21.33;16.20;;;;;;;9.45;95.39;94140.56;5115445;28;20843;-77
2022/11/24 07:56:05;;;;;;;23.00;17.07;;;;;;;9.45;96.78;94153.66;5079520;28;20938;-77
2022/11/24 07:58:33;;;;;;;25.00;16.27;;;;;;;9.52;96.31;94164.41;5079915;28;20443;-77
2022/11/24 08:01:01;;;;;;;19.43;14.70;;;;;;;9.40;96.06;94165.53;5115355;28;20471;-77
2022/11/24 08:03:28;;;;;;;26.20;15.03;;;;;;;9.38;98.78;94162.25;5114836;28;20451;-77
2022/11/24 08:05:55;;;;;;;25.13;16.67;;;;;;;9.24;97.47;94164.31;5077953;28;20439;-77
2022/11/24 08:08:22;;;;;;;23.17;17.33;;;;;;;9.11;97.79;94169.03;5114071;28;20512;-77
2022/11/24 08:10:48;;;;;;;27.63;16.27;;;;;;;9.09;97.70;94173.56;5114403;28;20442;-77
2022/11/24 08:13:17;;;;;;;20.07;13.70;;;;;;;9.00;98.64;94166.56;5114460;27;20452;-77
2022/11/24 08:15:43;;;;;;;18.13;12.07;;;;;;;8.90;98.97;94170.94;5077881;28;20443;-77
2022/11/24 08:18:11;;;;;;;20.00;14.07;;;;;;;8.89;99.80;94182.38;5113807;27;20488;-77
2022/11/24 08:20:38;;;;;;;15.83;11.77;;;;;;;8.72;99.24;94185.69;5077326;28;20526;-78
2022/11/24 08:23:05;;;;;;;17.50;13.33;;;;;;;8.61;100.00;94184.81;5114169;28;20477;-77
2022/11/24 08:25:32;;;;;;;18.27;14.30;;;;;;;8.51;100.00;94191.84;5113872;28;20822;-77
2022/11/24 08:27:59;;;;;;;21.67;15.33;;;;;;;8.52;100.00;94185.66;5113635;28;20816;-78
2022/11/24 08:30:27;;;;;;;19.60;14.67;;;;;;;8.47;100.00;94198.31;5113457;27;20449;-77
2022/11/24 08:32:54;;;;;;;19.20;14.13;;;;;;;8.49;100.00;94196.38;5114163;28;20557;-77
2022/11/24 08:35:21;;;;;;;17.67;13.40;;;;;;;8.50;100.00;94192.81;5113722;27;20443;-76
2022/11/24 08:37:48;;;;;;;19.60;14.63;;;;;;;8.49;100.00;94199.00;5113958;28;20455;-77
2022/11/24 08:40:15;;;;;;;16.17;13.60;;;;;;;8.36;100.00;94211.47;5113836;28;20930;-77
2022/11/24 08:42:42;;;;;;;22.40;15.27;;;;;;;8.38;100.00;94220.00;5077289;28;20435;-78
2022/11/24 08:45:10;;;;;;;14.70;12.53;;;;;;;8.26;100.00;94211.41;5113302;28;20445;-77
2022/11/24 08:47:38;;;;;;;15.90;12.37;;;;;;;8.15;100.00;94215.94;5113387;28;20511;-78
2022/11/24 08:50:06;;;;;;;17.53;13.00;;;;;;;8.05;100.00;94216.69;5113726;28;20450;-77
2022/11/24 08:52:32;;;;;;;17.83;12.57;;;;;;;7.95;100.00;94209.78;5113359;28;20441;-77
2022/11/24 08:54:59;;;;;;;13.10;10.33;;;;;;;7.92;100.00;94223.94;5113245;28;20453;-77
2022/11/24 08:57:26;;;;;;;18.07;12.47;;;;;;;7.88;100.00;94222.56;5112863;28;20445;-77
2022/11/24 08:59:53;;;;;;;13.03;9.83;;;;;;;7.94;100.00;94226.41;5113431;28;20449;-78
2022/11/24 09:02:19;;;;;;;16.93;10.83;;;;;;;7.92;100.00;94226.56;5113112;28;20468;-77
2022/11/24 09:04:48;;;;;;;13.50;10.13;;;;;;;7.87;100.00;94226.13;5113006;28;20444;-77
2022/11/24 09:07:14;;;;;;;13.37;9.67;;;;;;;7.80;100.00;94239.81;5077243;28;20484;-77
2022/11/24 09:09:41;;;;;;;12.33;9.37;;;;;;;7.74;100.00;94235.94;5076865;28;20439;-78
2022/11/24 09:12:09;;;;;;;24.80;11.97;;;;;;;7.73;100.00;94234.28;5077103;28;20442;-78
2022/11/24 09:14:36;;;;;;;19.90;11.40;;;;;;;7.71;100.00;94241.41;5112918;28;20458;-77
2022/11/24 09:17:02;;;;;;;7.43;6.33;;;;;;;7.61;100.00;94243.16;5113004;28;20989;-78
2022/11/24 09:19:29;;;;;;;6.90;6.20;;;;;;;7.57;100.00;94241.75;5112857;28;20840;-78
2022/11/24 09:21:57;;;;;;;12.90;9.73;;;;;;;7.60;100.00;94244.13;5112812;28;20447;-78
2022/11/24 09:24:25;;;;;;;11.47;8.67;;;;;;;7.67;100.00;94234.81;5093470;28;20453;-77
2022/11/24 09:26:54;;;;;;;17.40;13.10;;;;;;;7.66;100.00;94236.59;5112962;28;20482;-76
2022/11/24 09:29:21;;;;;;;15.53;12.00;;;;;;;7.66;100.00;94241.81;5112998;28;20439;-74
2022/11/24 09:31:48;;;;;;;14.27;9.90;;;;;;;7.66;100.00;94249.63;5112721;28;20445;-78
2022/11/24 09:34:15;;;;;;;18.20;10.00;;;;;;;7.64;100.00;94246.34;5112647;28;20445;-78
2022/11/24 09:36:42;;;;;;;15.17;10.20;;;;;;;7.80;100.00;94245.03;5113166;28;20426;-78
2022/11/24 09:39:11;;;;;;;11.33;8.90;;;;;;;7.94;100.00;94250.75;5112669;28;20970;-77
2022/11/24 09:42:05;;;;;;;10.40;9.30;;;;;;;7.99;100.00;94253.81;5112933;28;20451;-77
2022/11/24 09:44:56;;;;;;;8.30;7.30;;;;;;;8.03;99.16;94263.03;5029885;28;20446;-77
2022/11/24 09:47:34;;;;;;;9.90;7.97;;;;;;;8.13;98.12;94257.03;5031075;28;20960;-76
2022/11/24 09:50:03;;;;;;;8.53;5.50;;;;;;;8.14;95.36;94256.91;5031107;28;20446;-74
2022/11/24 09:52:39;;;;;;;14.20;7.40;;;;;;;8.12;94.11;94255.41;5031089;28;20450;-78
2022/11/24 09:55:25;;;;;;;4.50;4.10;;;;;;;7.96;93.53;94258.47;5030878;28;20450;-78
2022/11/24 09:57:59;;;;;;;4.83;4.43;;;;;;;7.91;93.95;94271.09;5033667;28;20956;-75
2022/11/24 10:00:26;;;;;;;6.00;5.40;;;;;;;7.89;93.94;94271.22;5035300;28;20503;-78
2022/11/24 10:02:53;;;;;;;5.03;4.00;;;;;;;7.75;92.49;94271.53;5034832;28;20477;-79
2022/11/24 10:05:20;;;;;;;8.20;4.43;;;;;;;7.72;92.47;94282.25;5034321;28;20492;-76
2022/11/24 10:07:59;;;;;;;4.47;4.03;;;;;;;7.87;94.18;94280.97;5033621;28;21024;-75
2022/11/24 10:10:35;;;;;;;3.73;3.23;;;;;;;7.84;91.19;94283.03;5033654;28;20445;-75
2022/11/24 10:13:25;;;;;;;3.00;2.80;;;;;;;7.82;93.89;94271.88;5034539;28;20454;-77
2022/11/24 10:16:00;;;;;;;4.27;3.77;;;;;;;7.85;90.99;94285.50;5035577;28;20522;-77
2022/11/24 10:18:45;;;;;;;14.60;6.00;;;;;;;8.00;92.15;94276.34;5034635;28;20964;-79
2022/11/24 10:21:24;;;;;;;10.10;6.87;;;;;;;7.98;90.67;94280.88;5064849;28;20439;-80
2022/11/24 10:24:08;;;;;;;9.20;6.10;;;;;;;8.03;91.98;94273.47;5099943;28;20442;-79
2022/11/24 10:26:38;;;;;;;6.20;3.50;;;;;;;7.84;89.19;94273.41;5117490;28;20455;-79
2022/11/24 10:29:19;;;;;;;5.00;4.43;;;;;;;7.80;90.53;94277.19;5116319;28;20489;-80
2022/11/24 10:31:52;;;;;;;7.57;4.70;;;;;;;7.76;90.66;94286.25;5116841;28;20449;-78
2022/11/24 10:34:23;;;;;;;10.70;6.47;;;;;;;7.64;91.11;94284.66;5116670;28;20774;-79
2022/11/24 10:36:57;;;;;;;4.97;4.50;;;;;;;7.62;91.28;94294.41;5116756;28;20452;-77
2022/11/24 10:39:32;;;;;;;4.23;3.90;;;;;;;7.36;91.23;94294.78;5116929;28;20441;-78
2022/11/24 10:42:06;;;;;;;3.93;3.63;;;;;;;7.29;91.42;94292.78;5117316;28;20491;-79
2022/11/24 10:44:33;;;;;;;5.80;5.20;;;;;;;7.27;91.41;94287.69;5117071;28;20420;-79
2022/11/24 10:47:00;;;;;;;7.30;4.80;;;;;;;7.26;91.35;94293.88;5116957;28;20445;-78
2022/11/24 10:49:32;;;;;;;5.13;4.40;;;;;;;7.26;91.24;94295.66;5116965;28;20449;-78
2022/11/24 10:52:08;;;;;;;6.50;4.97;;;;;;;7.30;91.35;94295.28;5117008;28;20449;-76
2022/11/24 10:54:35;;;;;;;4.63;4.23;;;;;;;7.26;90.38;94298.28;5116893;28;20451;-76
2022/11/24 10:57:04;;;;;;;3.97;3.67;;;;;;;7.29;89.90;94291.00;5116547;28;20866;-77
2022/11/24 10:59:37;;;;;;;6.80;6.10;;;;;;;7.30;90.77;94284.84;5080524;28;20985;-77
2022/11/24 11:02:31;;;;;;;17.37;7.23;;;;;;;7.30;89.95;94292.66;5115791;28;20459;-77
2022/11/24 11:04:58;;;;;;;6.57;5.80;;;;;;;7.32;90.20;94288.16;5102384;28;20442;-77
2022/11/24 11:07:26;;;;;;;7.07;5.67;;;;;;;7.29;89.68;94290.19;5095679;28;20488;-78
2022/11/24 11:10:18;;;;;;;7.67;5.57;;;;;;;7.28;89.96;94288.53;5095895;28;21178;-77
2022/11/24 11:12:46;;;;;;;6.43;5.23;;;;;;;7.44;90.78;94289.75;5099699;28;20480;-77
2022/11/24 11:15:24;;;;;;;8.33;4.90;;;;;;;7.45;89.15;94299.22;5113688;28;20865;-77
2022/11/24 11:17:56;;;;;;;8.40;6.77;;;;;;;7.52;89.46;94299.59;5095901;28;20461;-78
2022/11/24 11:20:28;;;;;;;5.70;5.20;;;;;;;7.62;88.98;94297.03;5095442;28;21342;-78
2022/11/24 11:22:56;;;;;;;6.93;4.70;;;;;;;7.70;88.80;94292.81;5095708;28;20492;-77
2022/11/24 11:25:26;;;;;;;8.43;5.57;;;;;;;7.76;88.83;94299.31;5095759;28;20442;-78
2022/11/24 11:28:11;;;;;;;5.60;5.10;;;;;;;7.72;87.41;94303.13;5095377;28;20482;-77
2022/11/24 11:30:38;;;;;;;6.10;5.50;;;;;;;7.63;87.20;94298.69;5095535;28;20913;-78
2022/11/24 11:33:20;;;;;;;5.83;5.23;;;;;;;7.68;87.56;94299.94;5095958;28;20439;-78
2022/11/24 11:35:47;;;;;;;11.37;7.00;;;;;;;7.80;88.39;94308.53;5093615;28;20474;-78
2022/11/24 11:38:14;;;;;;;7.67;6.57;;;;;;;7.68;87.42;94309.56;5101910;28;20468;-78
2022/11/24 11:40:41;;;;;;;8.20;6.80;;;;;;;7.61;87.55;94297.97;5113620;28;20943;-77
2022/11/24 11:43:22;;;;;;;6.50;5.97;;;;;;;7.62;90.02;94303.06;5103445;28;21008;-79
2022/11/24 11:45:56;;;;;;;5.80;5.20;;;;;;;7.49;87.18;94301.59;5094013;28;20454;-78